Terminal Aerodrome Forecast
Issued by NWS Duluth, MN

Home | Current Version | Previous Version | Text Only | Print | Product List | Glossary On
Versions: 1 2 3 4 5 6 7 8 9 10 11 12 13 14 15 16 17 18 19 20 21 22 23 24 25 26 27 28
000
FTUS43 KDLH 292200 AAC
TAFDLH
TAF AMD
KDLH 292256Z 2923/3018 33017G26KT P6SM -SN BKN025
      TEMPO 2923/3001 SCT025
     FM300400 34008KT P6SM SCT020
     FM301500 28007KT P6SM SCT015 OVC080=

USA.gov is the U.S. government's official web portal to all federal, state and local government web resources and services.